Time;durP1;ratioP1;P1;durP2;ratioP2;P2;SDS_P1;SDS_P2;PMS_P1;PMS_P2;Temp;Humidity;BMP_temperature;BMP_pressure;BME280_temperature;BME280_humidity;BME280_pressure;Samples;Min_cycle;Max_cycle;Signal;HPM_P1;HPM_P2
2022/09/15 00:00:16;;;;;;;;;;;21.00;93.60;;;;;;5135556;27;19907;-70
2022/09/15 00:02:42;;;;;;;;;;;21.00;93.50;;;;;;5117188;28;19908;-69
2022/09/15 00:05:08;;;;;;;;;;;21.00;93.50;;;;;;5117202;28;19998;-69
2022/09/15 00:07:33;;;;;;;;;;;21.00;93.60;;;;;;5098901;28;19982;-69
2022/09/15 00:09:59;;;;;;;;;;;21.00;93.60;;;;;;5117054;28;20350;-70
2022/09/15 00:12:25;;;;;;;;;;;20.90;93.50;;;;;;5117952;27;20320;-70
2022/09/15 00:14:51;;;;;;;;;;;20.90;93.60;;;;;;5122769;27;19908;-70
2022/09/15 00:17:16;;;;;;;;;;;20.90;93.60;;;;;;5116981;28;19929;-69
2022/09/15 00:19:42;;;;;;;;;;;20.90;93.60;;;;;;5098578;28;20428;-69
2022/09/15 00:22:08;;;;;;;;;;;20.90;93.60;;;;;;5116883;28;19903;-70
2022/09/15 00:24:34;;;;;;;;;;;20.80;93.60;;;;;;5116394;28;19903;-69
2022/09/15 00:27:00;;;;;;;;;;;20.80;93.60;;;;;;5097879;28;19908;-69
2022/09/15 00:29:26;;;;;;;;;;;20.80;93.60;;;;;;5116733;28;19910;-69
2022/09/15 00:31:51;;;;;;;;;;;20.80;93.70;;;;;;5131155;27;20361;-70
2022/09/15 00:34:17;;;;;;;;;;;20.80;93.80;;;;;;5127582;27;19911;-69
2022/09/15 00:36:43;;;;;;;;;;;20.80;93.80;;;;;;5136380;27;19972;-69
2022/09/15 00:39:08;;;;;;;;;;;20.80;93.90;;;;;;5137148;27;20001;-69
2022/09/15 00:41:34;;;;;;;;;;;20.80;93.90;;;;;;5133327;27;20362;-69
2022/09/15 00:44:00;;;;;;;;;;;20.90;94.00;;;;;;5136831;27;20374;-69
2022/09/15 00:46:30;;;;;;;;;;;20.90;94.10;;;;;;5136960;27;20269;-69
2022/09/15 00:49:07;;;;;;;;;;;20.90;94.10;;;;;;5136918;27;20346;-70
2022/09/15 00:51:41;;;;;;;;;;;21.00;94.10;;;;;;5136803;27;19907;-69
2022/09/15 00:54:09;;;;;;;;;;;21.00;94.20;;;;;;5136874;27;19952;-69
2022/09/15 00:56:36;;;;;;;;;;;21.00;94.10;;;;;;5136578;27;19907;-69
2022/09/15 00:59:05;;;;;;;;;;;21.10;94.10;;;;;;5132362;27;19903;-69
2022/09/15 01:01:31;;;;;;;;;;;21.10;94.10;;;;;;5105258;28;19915;-69
2022/09/15 01:03:57;;;;;;;;;;;21.10;94.00;;;;;;5115913;28;20013;-69
2022/09/15 01:06:32;;;;;;;;;;;21.00;93.90;;;;;;5097536;28;19949;-69
2022/09/15 01:09:13;;;;;;;;;;;21.00;93.80;;;;;;5125341;27;19911;-69
2022/09/15 01:11:38;;;;;;;;;;;21.00;93.80;;;;;;5136227;27;19911;-69
2022/09/15 01:14:04;;;;;;;;;;;21.00;93.70;;;;;;5136433;27;19909;-69
2022/09/15 01:16:53;;;;;;;;;;;20.90;93.60;;;;;;5136210;27;19953;-69
2022/09/15 01:19:37;;;;;;;;;;;20.90;93.60;;;;;;5118301;27;19915;-69
2022/09/15 01:22:12;;;;;;;;;;;20.80;93.60;;;;;;5136151;27;19907;-69
2022/09/15 01:24:37;;;;;;;;;;;20.80;93.70;;;;;;5136115;27;20352;-69
2022/09/15 01:27:06;;;;;;;;;;;20.80;93.80;;;;;;5136009;27;19907;-69
2022/09/15 01:29:58;;;;;;;;;;;20.80;93.90;;;;;;5135915;27;19903;-69
2022/09/15 01:35:21;;;;;;;;;;;20.80;93.90;;;;;;5115339;28;19911;-69
2022/09/15 01:37:51;;;;;;;;;;;20.80;93.90;;;;;;5115333;28;19953;-69
2022/09/15 01:40:17;;;;;;;;;;;20.80;93.90;;;;;;5115234;28;19992;-69
2022/09/15 01:42:44;;;;;;;;;;;20.80;93.90;;;;;;5115162;28;19911;-69
2022/09/15 01:45:18;;;;;;;;;;;20.80;94.00;;;;;;5115129;28;19947;-69
2022/09/15 01:47:45;;;;;;;;;;;20.80;94.00;;;;;;5115088;28;19911;-69
2022/09/15 01:50:14;;;;;;;;;;;20.80;94.10;;;;;;5114925;28;19939;-69
2022/09/15 01:52:43;;;;;;;;;;;20.80;94.10;;;;;;5114974;28;19908;-69
2022/09/15 01:55:16;;;;;;;;;;;20.80;94.10;;;;;;5114403;28;19908;-69
2022/09/15 01:57:42;;;;;;;;;;;20.80;94.10;;;;;;5115136;28;19904;-70
2022/09/15 02:00:08;;;;;;;;;;;20.80;94.10;;;;;;5096525;27;20355;-69
2022/09/15 02:02:55;;;;;;;;;;;20.80;94.10;;;;;;5114751;28;19910;-69
2022/09/15 02:05:33;;;;;;;;;;;20.80;94.10;;;;;;5114730;28;19904;-69
2022/09/15 02:07:59;;;;;;;;;;;20.90;94.20;;;;;;5115010;28;19907;-69
2022/09/15 02:10:28;;;;;;;;;;;20.90;94.20;;;;;;5114524;28;19908;-69
2022/09/15 02:13:02;;;;;;;;;;;20.90;94.20;;;;;;5114507;28;20002;-69
2022/09/15 02:15:41;;;;;;;;;;;20.90;94.20;;;;;;5114530;28;19903;-70
2022/09/15 02:18:09;;;;;;;;;;;20.90;94.20;;;;;;5114517;28;20304;-70
2022/09/15 02:20:47;;;;;;;;;;;20.90;94.20;;;;;;5114393;28;19907;-69
2022/09/15 02:23:16;;;;;;;;;;;20.90;94.20;;;;;;5115116;27;19903;-71
2022/09/15 02:25:50;;;;;;;;;;;21.00;94.30;;;;;;5099174;28;20007;-69
2022/09/15 02:28:18;;;;;;;;;;;21.00;94.20;;;;;;5114317;28;20313;-69
2022/09/15 02:30:45;;;;;;;;;;;21.00;94.20;;;;;;5113954;27;19912;-69
2022/09/15 02:33:13;;;;;;;;;;;21.00;94.20;;;;;;5113985;28;19923;-69
2022/09/15 02:35:40;;;;;;;;;;;21.00;94.20;;;;;;5114174;28;19908;-69
2022/09/15 02:38:07;;;;;;;;;;;21.10;94.30;;;;;;5114127;28;19910;-69
2022/09/15 02:40:34;;;;;;;;;;;21.10;94.20;;;;;;5114099;28;20002;-69
2022/09/15 02:43:00;;;;;;;;;;;21.10;94.20;;;;;;5114142;28;19904;-69
2022/09/15 02:45:26;;;;;;;;;;;21.10;94.20;;;;;;5113613;28;19903;-69
2022/09/15 02:47:52;;;;;;;;;;;21.10;94.20;;;;;;5129249;27;19915;-70
2022/09/15 02:50:19;;;;;;;;;;;21.10;94.10;;;;;;5134408;27;19907;-70
2022/09/15 02:52:45;;;;;;;;;;;21.10;94.10;;;;;;5134466;27;20277;-69
2022/09/15 02:55:10;;;;;;;;;;;21.10;94.10;;;;;;5134653;27;19903;-69
2022/09/15 02:57:36;;;;;;;;;;;21.10;94.10;;;;;;5134360;27;19904;-70
2022/09/15 03:00:12;;;;;;;;;;;21.10;94.10;;;;;;5134361;27;19903;-69
2022/09/15 03:02:38;;;;;;;;;;;21.10;94.10;;;;;;5113782;28;20350;-69
2022/09/15 03:05:05;;;;;;;;;;;21.10;94.10;;;;;;5113651;28;19903;-69
2022/09/15 03:07:30;;;;;;;;;;;21.10;94.10;;;;;;5112792;28;19960;-69
2022/09/15 03:09:57;;;;;;;;;;;21.10;94.20;;;;;;5113667;28;19908;-69
2022/09/15 03:12:23;;;;;;;;;;;21.10;94.20;;;;;;5113808;28;20278;-69
2022/09/15 03:14:49;;;;;;;;;;;21.10;94.20;;;;;;5113693;28;20373;-69
2022/09/15 03:17:15;;;;;;;;;;;21.10;94.20;;;;;;5113662;28;19930;-69
2022/09/15 03:19:40;;;;;;;;;;;21.10;94.20;;;;;;5113815;28;19904;-69
2022/09/15 03:22:08;;;;;;;;;;;21.10;94.20;;;;;;5113592;28;19904;-69
2022/09/15 03:24:34;;;;;;;;;;;21.10;94.20;;;;;;5113572;28;20271;-69
2022/09/15 03:26:59;;;;;;;;;;;21.10;94.20;;;;;;5113473;28;19903;-69
2022/09/15 03:29:25;;;;;;;;;;;21.10;94.20;;;;;;5113471;28;19931;-69
2022/09/15 03:31:51;;;;;;;;;;;21.10;94.20;;;;;;5112938;28;20064;-70
2022/09/15 03:34:16;;;;;;;;;;;21.10;94.20;;;;;;5113488;28;19912;-69
2022/09/15 03:36:42;;;;;;;;;;;21.10;94.20;;;;;;5113410;28;19982;-70
2022/09/15 03:39:08;;;;;;;;;;;21.20;94.20;;;;;;5095220;28;19988;-69
2022/09/15 03:41:34;;;;;;;;;;;21.10;94.20;;;;;;5113402;28;19990;-69
2022/09/15 03:43:59;;;;;;;;;;;21.20;94.30;;;;;;5113368;28;20406;-69
2022/09/15 03:46:26;;;;;;;;;;;21.20;94.20;;;;;;5113336;28;19910;-69
2022/09/15 03:48:51;;;;;;;;;;;21.10;94.10;;;;;;5113266;28;19957;-69
2022/09/15 03:51:17;;;;;;;;;;;21.10;94.20;;;;;;5094931;28;19908;-69
2022/09/15 03:53:42;;;;;;;;;;;21.20;94.20;;;;;;5113219;28;19910;-69
2022/09/15 03:56:25;;;;;;;;;;;21.10;94.10;;;;;;5113225;28;20274;-69
2022/09/15 03:58:51;;;;;;;;;;;21.10;94.10;;;;;;5113137;28;19966;-69
2022/09/15 04:01:17;;;;;;;;;;;21.10;94.10;;;;;;5113113;28;19908;-69
2022/09/15 04:03:43;;;;;;;;;;;21.10;94.10;;;;;;5113262;28;19926;-69
2022/09/15 04:06:09;;;;;;;;;;;21.00;94.10;;;;;;5113112;28;20354;-69
2022/09/15 04:08:35;;;;;;;;;;;21.00;94.10;;;;;;5113150;28;20290;-69
2022/09/15 04:11:04;;;;;;;;;;;21.00;94.10;;;;;;5112932;28;19947;-69
2022/09/15 04:13:30;;;;;;;;;;;21.00;94.10;;;;;;5113069;28;19904;-70
2022/09/15 04:15:57;;;;;;;;;;;21.00;94.10;;;;;;5111554;28;19910;-69
2022/09/15 04:18:23;;;;;;;;;;;21.00;94.30;;;;;;5133769;27;19903;-69
2022/09/15 04:20:48;;;;;;;;;;;21.00;94.20;;;;;;5137290;27;19914;-70
2022/09/15 04:23:14;;;;;;;;;;;21.00;94.20;;;;;;5137251;27;19990;-69
2022/09/15 04:25:40;;;;;;;;;;;21.00;94.20;;;;;;5137067;27;19903;-69
2022/09/15 04:28:06;;;;;;;;;;;21.00;94.20;;;;;;5118712;27;19999;-69
2022/09/15 04:30:31;;;;;;;;;;;21.00;94.20;;;;;;5116248;27;19908;-69
2022/09/15 04:32:57;;;;;;;;;;;21.00;94.10;;;;;;5126899;27;19915;-70
2022/09/15 04:35:22;;;;;;;;;;;21.00;94.10;;;;;;5137034;27;20347;-69
2022/09/15 04:37:48;;;;;;;;;;;21.00;94.10;;;;;;5118583;27;19914;-69
2022/09/15 04:40:14;;;;;;;;;;;21.00;94.00;;;;;;5136897;27;19904;-69
2022/09/15 04:42:40;;;;;;;;;;;20.90;93.90;;;;;;5136800;27;19903;-70
2022/09/15 04:45:06;;;;;;;;;;;20.90;93.90;;;;;;5118214;27;20262;-69
2022/09/15 04:47:31;;;;;;;;;;;20.80;93.80;;;;;;5136538;27;20407;-69
2022/09/15 04:49:57;;;;;;;;;;;20.80;93.80;;;;;;5136702;27;19904;-69
2022/09/15 04:52:23;;;;;;;;;;;20.80;93.80;;;;;;5136551;27;20363;-69
2022/09/15 04:54:48;;;;;;;;;;;20.70;93.90;;;;;;5136596;27;19994;-69
2022/09/15 04:57:14;;;;;;;;;;;20.70;93.90;;;;;;5118164;27;19903;-69
2022/09/15 04:59:39;;;;;;;;;;;20.70;94.00;;;;;;5136451;27;19903;-69
2022/09/15 05:02:05;;;;;;;;;;;20.70;94.10;;;;;;5103294;28;19908;-69
2022/09/15 05:04:31;;;;;;;;;;;20.70;94.10;;;;;;5097716;28;19903;-69
2022/09/15 05:06:56;;;;;;;;;;;20.60;94.10;;;;;;5115894;28;19991;-69
2022/09/15 05:09:22;;;;;;;;;;;20.70;94.20;;;;;;5115697;28;19987;-69
2022/09/15 05:11:47;;;;;;;;;;;20.60;94.20;;;;;;5097412;28;19914;-69
2022/09/15 05:14:13;;;;;;;;;;;20.60;94.20;;;;;;5115597;28;19908;-69
2022/09/15 05:16:39;;;;;;;;;;;20.60;94.20;;;;;;5115548;28;19908;-69
2022/09/15 05:19:04;;;;;;;;;;;20.60;94.30;;;;;;5115446;28;19904;-69
2022/09/15 05:21:31;;;;;;;;;;;20.70;94.40;;;;;;5115522;28;19904;-69
2022/09/15 05:23:56;;;;;;;;;;;20.70;94.50;;;;;;5115428;28;20341;-69
2022/09/15 05:26:24;;;;;;;;;;;20.70;94.50;;;;;;5115231;28;19939;-69
2022/09/15 05:28:49;;;;;;;;;;;20.70;94.60;;;;;;5115447;28;19915;-69
2022/09/15 05:31:25;;;;;;;;;;;20.80;94.60;;;;;;5114229;28;19911;-69
2022/09/15 05:33:51;;;;;;;;;;;20.80;94.60;;;;;;5096632;28;19919;-69
2022/09/15 05:36:19;;;;;;;;;;;20.80;94.60;;;;;;5115130;28;20335;-69
2022/09/15 05:38:44;;;;;;;;;;;20.90;94.70;;;;;;5096910;28;20362;-69
2022/09/15 05:41:12;;;;;;;;;;;20.90;94.70;;;;;;5115130;28;19911;-69
2022/09/15 05:43:38;;;;;;;;;;;21.00;94.70;;;;;;5096860;28;20012;-69
2022/09/15 05:46:04;;;;;;;;;;;21.00;94.70;;;;;;5115054;28;19903;-69
2022/09/15 05:48:30;;;;;;;;;;;21.00;94.70;;;;;;5114946;28;19989;-70
2022/09/15 05:50:56;;;;;;;;;;;21.10;94.70;;;;;;5114894;28;19908;-69
2022/09/15 05:53:22;;;;;;;;;;;21.10;94.70;;;;;;5114924;28;19904;-69
2022/09/15 05:55:47;;;;;;;;;;;21.20;94.80;;;;;;5114960;28;19903;-70
2022/09/15 05:58:13;;;;;;;;;;;21.20;94.90;;;;;;5096298;28;19952;-69
2022/09/15 06:00:40;;;;;;;;;;;21.20;95.00;;;;;;5115501;27;19994;-69
2022/09/15 06:03:06;;;;;;;;;;;21.30;95.10;;;;;;5121466;27;20023;-69
2022/09/15 06:05:32;;;;;;;;;;;21.40;95.20;;;;;;5129791;27;19943;-69
2022/09/15 06:07:57;;;;;;;;;;;21.50;95.30;;;;;;5133323;27;19915;-70
2022/09/15 06:10:26;;;;;;;;;;;21.60;95.30;;;;;;5126793;27;19914;-69
2022/09/15 06:12:52;;;;;;;;;;;21.70;95.30;;;;;;5114605;28;19904;-69
2022/09/15 06:15:18;;;;;;;;;;;21.70;95.20;;;;;;5120830;27;19908;-69
2022/09/15 06:17:43;;;;;;;;;;;21.80;95.20;;;;;;5116294;27;20394;-69
2022/09/15 06:20:09;;;;;;;;;;;21.80;95.10;;;;;;5118966;27;19987;-70
2022/09/15 06:22:35;;;;;;;;;;;21.80;95.10;;;;;;5114415;28;19910;-69
2022/09/15 06:25:00;;;;;;;;;;;21.80;95.10;;;;;;5115604;27;19914;-69
2022/09/15 06:27:26;;;;;;;;;;;21.90;95.10;;;;;;5111476;27;19907;-69
2022/09/15 06:29:52;;;;;;;;;;;21.90;95.00;;;;;;5130935;27;19960;-70
2022/09/15 06:32:17;;;;;;;;;;;22.00;95.10;;;;;;5114059;27;19920;-70
2022/09/15 06:34:43;;;;;;;;;;;22.00;95.20;;;;;;5121452;27;19907;-70
2022/09/15 06:37:09;;;;;;;;;;;22.10;95.30;;;;;;5134802;27;19989;-70
2022/09/15 06:39:34;;;;;;;;;;;22.20;95.30;;;;;;5116360;27;19908;-70
2022/09/15 06:42:00;;;;;;;;;;;22.20;95.50;;;;;;5132764;27;19995;-71
2022/09/15 06:44:26;;;;;;;;;;;22.30;95.60;;;;;;5113987;27;19903;-70
2022/09/15 06:46:51;;;;;;;;;;;22.40;95.60;;;;;;5114047;28;19937;-70
2022/09/15 06:49:18;;;;;;;;;;;22.50;95.60;;;;;;5113840;28;19949;-70
2022/09/15 06:51:43;;;;;;;;;;;22.50;95.50;;;;;;5113934;28;19998;-70
2022/09/15 06:54:09;;;;;;;;;;;22.60;95.40;;;;;;5113681;28;19946;-70
2022/09/15 06:56:35;;;;;;;;;;;22.60;95.30;;;;;;5113894;28;20376;-70
2022/09/15 06:59:01;;;;;;;;;;;22.70;95.20;;;;;;5114051;28;20381;-70
2022/09/15 07:01:28;;;;;;;;;;;22.70;95.20;;;;;;5113767;28;19907;-70
2022/09/15 07:03:55;;;;;;;;;;;22.70;95.10;;;;;;5113885;28;19908;-70
2022/09/15 07:06:21;;;;;;;;;;;22.80;95.10;;;;;;5113872;28;19903;-70
2022/09/15 07:08:47;;;;;;;;;;;22.80;95.00;;;;;;5113818;28;19911;-70
2022/09/15 07:11:13;;;;;;;;;;;22.80;94.90;;;;;;5113789;28;19907;-71
2022/09/15 07:13:39;;;;;;;;;;;22.70;94.70;;;;;;5095537;28;20385;-70
2022/09/15 07:16:06;;;;;;;;;;;22.70;94.70;;;;;;5113765;28;19971;-70
2022/09/15 07:18:31;;;;;;;;;;;22.70;94.70;;;;;;5095488;28;20259;-70
2022/09/15 07:20:58;;;;;;;;;;;22.70;94.60;;;;;;5095591;28;19911;-70
2022/09/15 07:23:24;;;;;;;;;;;22.70;94.70;;;;;;5113601;28;19910;-70
2022/09/15 07:25:49;;;;;;;;;;;22.80;94.80;;;;;;5113695;28;19903;-70
2022/09/15 07:28:15;;;;;;;;;;;22.80;94.90;;;;;;5113721;28;19904;-70
2022/09/15 07:30:41;;;;;;;;;;;22.80;95.00;;;;;;5113330;28;19938;-70
2022/09/15 07:33:07;;;;;;;;;;;22.90;95.00;;;;;;5113392;28;20312;-70
2022/09/15 07:35:33;;;;;;;;;;;22.90;95.00;;;;;;5113592;28;19912;-70
2022/09/15 07:37:59;;;;;;;;;;;22.90;94.90;;;;;;5113536;28;20378;-70
2022/09/15 07:40:25;;;;;;;;;;;22.90;94.90;;;;;;5095235;28;19910;-70
2022/09/15 07:42:51;;;;;;;;;;;22.90;94.90;;;;;;5113419;28;19904;-70
2022/09/15 07:45:16;;;;;;;;;;;22.90;94.80;;;;;;5113319;28;19904;-70
2022/09/15 07:47:42;;;;;;;;;;;23.00;94.80;;;;;;5113504;28;19911;-70
2022/09/15 07:50:07;;;;;;;;;;;23.00;94.80;;;;;;5113415;28;19910;-70
2022/09/15 07:52:33;;;;;;;;;;;23.00;94.80;;;;;;5114222;28;19908;-70
2022/09/15 07:54:59;;;;;;;;;;;23.00;94.70;;;;;;5116301;28;19912;-70
2022/09/15 07:57:25;;;;;;;;;;;23.00;94.60;;;;;;5117315;28;19907;-70
2022/09/15 07:59:51;;;;;;;;;;;22.90;94.50;;;;;;5117284;28;20406;-70
2022/09/15 08:02:18;;;;;;;;;;;22.90;94.40;;;;;;5117151;28;19986;-70
2022/09/15 08:04:43;;;;;;;;;;;22.80;94.20;;;;;;5117260;28;19943;-70
2022/09/15 08:07:09;;;;;;;;;;;22.80;94.10;;;;;;5098876;28;19939;-70
2022/09/15 08:09:36;;;;;;;;;;;22.60;93.90;;;;;;5117071;28;19953;-70
2022/09/15 08:12:02;;;;;;;;;;;22.40;93.40;;;;;;5117031;28;19907;-70
2022/09/15 08:14:30;;;;;;;;;;;22.20;92.90;;;;;;5117031;28;19949;-70
2022/09/15 08:16:59;;;;;;;;;;;22.00;92.60;;;;;;5117002;28;19904;-70
2022/09/15 08:19:28;;;;;;;;;;;21.80;92.60;;;;;;5116864;28;20388;-70
2022/09/15 08:21:54;;;;;;;;;;;21.70;92.60;;;;;;5116790;28;19911;-70
2022/09/15 08:24:21;;;;;;;;;;;21.50;92.90;;;;;;5116697;28;19903;-70
2022/09/15 08:26:47;;;;;;;;;;;21.50;93.20;;;;;;5129514;27;19909;-70
2022/09/15 08:29:13;;;;;;;;;;;21.40;93.40;;;;;;5137180;27;20394;-71
2022/09/15 08:31:39;;;;;;;;;;;21.30;93.60;;;;;;5137049;27;20006;-71
2022/09/15 08:34:05;;;;;;;;;;;21.30;93.80;;;;;;5137028;27;19915;-70
2022/09/15 08:36:34;;;;;;;;;;;21.30;94.10;;;;;;5137204;27;19911;-71
2022/09/15 08:39:00;;;;;;;;;;;21.30;94.30;;;;;;5137075;27;19941;-70
2022/09/15 08:41:31;;;;;;;;;;;21.40;94.70;;;;;;5118740;27;19942;-70
2022/09/15 08:43:56;;;;;;;;;;;21.40;94.90;;;;;;5136928;27;20347;-70
2022/09/15 08:46:25;;;;;;;;;;;21.50;95.00;;;;;;5136811;27;19910;-70
2022/09/15 08:49:00;;;;;;;;;;;21.50;95.10;;;;;;5136929;27;19903;-70
2022/09/15 08:51:30;;;;;;;;;;;21.60;95.30;;;;;;5136838;27;19907;-70
2022/09/15 08:54:02;;;;;;;;;;;21.70;95.40;;;;;;5136866;27;19911;-71
2022/09/15 08:56:27;;;;;;;;;;;21.80;95.60;;;;;;5125287;27;19915;-70
2022/09/15 08:58:53;;;;;;;;;;;21.80;95.60;;;;;;5116207;28;19904;-70
2022/09/15 09:01:45;;;;;;;;;;;21.90;95.50;;;;;;5116035;28;20002;-70
2022/09/15 09:04:16;;;;;;;;;;;21.90;95.40;;;;;;5084442;28;19954;-70
2022/09/15 09:06:47;;;;;;;;;;;22.00;95.30;;;;;;5115913;28;19904;-70
2022/09/15 09:09:19;;;;;;;;;;;22.00;95.20;;;;;;5115787;28;20320;-70
2022/09/15 09:11:44;;;;;;;;;;;22.00;95.00;;;;;;5115754;28;19908;-70
2022/09/15 09:14:16;;;;;;;;;;;22.00;95.00;;;;;;5115778;28;19911;-70
2022/09/15 09:16:53;;;;;;;;;;;22.00;95.10;;;;;;5119486;27;20243;-70
2022/09/15 09:19:38;;;;;;;;;;;22.10;95.20;;;;;;5115724;28;20285;-70
2022/09/15 09:22:08;;;;;;;;;;;22.10;95.30;;;;;;5097534;28;19957;-70
2022/09/15 09:24:34;;;;;;;;;;;22.20;95.40;;;;;;5115760;28;19903;-70
2022/09/15 09:26:59;;;;;;;;;;;22.20;95.30;;;;;;5115562;28;20010;-70
2022/09/15 09:29:30;;;;;;;;;;;22.30;95.40;;;;;;5115581;28;19919;-70
2022/09/15 09:31:56;;;;;;;;;;;22.30;95.40;;;;;;5115593;28;19911;-71
2022/09/15 09:34:29;;;;;;;;;;;22.40;95.30;;;;;;5115535;28;19912;-70
2022/09/15 09:36:59;;;;;;;;;;;22.40;95.20;;;;;;5097305;28;19904;-70
2022/09/15 09:39:26;;;;;;;;;;;22.40;95.10;;;;;;5097158;28;19904;-70
2022/09/15 09:41:52;;;;;;;;;;;22.40;95.00;;;;;;5115392;28;19999;-70
2022/09/15 09:44:18;;;;;;;;;;;22.40;95.00;;;;;;5096903;28;19933;-70
2022/09/15 09:46:45;;;;;;;;;;;22.40;95.00;;;;;;5115169;28;19904;-70
2022/09/15 09:49:22;;;;;;;;;;;22.40;95.00;;;;;;5115291;28;20378;-70
2022/09/15 09:51:51;;;;;;;;;;;22.50;95.10;;;;;;5114968;28;19912;-71
2022/09/15 09:54:19;;;;;;;;;;;22.50;95.10;;;;;;5115061;28;20048;-72
2022/09/15 09:56:48;;;;;;;;;;;22.50;95.00;;;;;;5114887;27;19915;-70
2022/09/15 09:59:30;;;;;;;;;;;22.40;94.80;;;;;;5115020;28;19909;-70
2022/09/15 10:02:05;;;;;;;;;;;22.40;94.80;;;;;;5114856;28;19943;-70
2022/09/15 10:04:30;;;;;;;;;;;22.40;94.70;;;;;;5114701;28;19903;-70
2022/09/15 10:06:56;;;;;;;;;;;22.40;94.80;;;;;;5114831;28;19952;-71
2022/09/15 10:09:22;;;;;;;;;;;22.40;94.90;;;;;;5114805;28;19911;-70
2022/09/15 10:11:50;;;;;;;;;;;22.50;95.00;;;;;;5114645;28;19908;-70
2022/09/15 10:14:17;;;;;;;;;;;22.50;95.30;;;;;;5096317;28;19903;-71
2022/09/15 10:16:43;;;;;;;;;;;22.70;95.60;;;;;;5095929;28;19904;-70
2022/09/15 10:19:13;;;;;;;;;;;22.80;95.90;;;;;;5115296;27;19919;-71
2022/09/15 10:21:38;;;;;;;;;;;22.90;95.90;;;;;;5114745;28;20354;-71
2022/09/15 10:24:22;;;;;;;;;;;23.00;95.90;;;;;;5114470;28;19911;-69
2022/09/15 10:26:48;;;;;;;;;;;23.10;96.00;;;;;;5117724;27;19914;-68
2022/09/15 10:29:17;;;;;;;;;;;23.30;96.20;;;;;;5114300;28;19990;-68
2022/09/15 10:31:43;;;;;;;;;;;23.40;96.10;;;;;;5095754;28;19911;-71
2022/09/15 10:34:29;;;;;;;;;;;23.50;96.10;;;;;;5114203;28;19918;-70
2022/09/15 10:37:21;;;;;;;;;;;23.60;96.10;;;;;;5096097;28;19904;-71
2022/09/15 10:39:50;;;;;;;;;;;23.70;96.30;;;;;;5082674;28;20394;-71
2022/09/15 10:42:42;;;;;;;;;;;23.90;96.30;;;;;;5114241;28;19990;-70
2022/09/15 10:45:17;;;;;;;;;;;24.00;96.30;;;;;;5109947;28;19903;-70
2022/09/15 10:48:05;;;;;;;;;;;24.10;96.20;;;;;;5114120;28;19903;-68
2022/09/15 10:50:31;;;;;;;;;;;24.10;95.80;;;;;;5114052;28;19904;-70
2022/09/15 10:53:15;;;;;;;;;;;24.10;95.30;;;;;;5113972;28;19995;-68
2022/09/15 10:56:06;;;;;;;;;;;24.20;95.30;;;;;;5114231;28;19915;-70
2022/09/15 10:58:32;;;;;;;;;;;24.20;95.50;;;;;;5114040;28;19908;-70
2022/09/15 11:01:17;;;;;;;;;;;24.30;95.70;;;;;;5113943;28;20315;-70
2022/09/15 11:03:54;;;;;;;;;;;24.40;96.00;;;;;;5113863;28;19904;-70
2022/09/15 11:06:25;;;;;;;;;;;24.50;96.00;;;;;;5113912;28;20354;-68
2022/09/15 11:09:05;;;;;;;;;;;24.60;95.80;;;;;;5113910;28;19904;-68
2022/09/15 11:11:50;;;;;;;;;;;24.60;95.40;;;;;;5113741;28;19908;-70
2022/09/15 11:14:18;;;;;;;;;;;24.60;95.30;;;;;;5113775;28;19903;-70
2022/09/15 11:16:53;;;;;;;;;;;24.60;95.40;;;;;;5113685;28;19933;-70
2022/09/15 11:19:21;;;;;;;;;;;24.70;95.50;;;;;;5113651;28;19926;-70
2022/09/15 11:21:55;;;;;;;;;;;24.80;95.50;;;;;;5113794;28;19904;-70
2022/09/15 11:24:30;;;;;;;;;;;24.80;95.30;;;;;;5113719;28;20274;-71
2022/09/15 11:27:03;;;;;;;;;;;24.80;95.10;;;;;;5113501;28;20382;-70
2022/09/15 11:29:50;;;;;;;;;;;24.90;94.80;;;;;;5115851;28;19908;-70
2022/09/15 11:32:23;;;;;;;;;;;24.80;94.70;;;;;;5117488;28;19915;-68
2022/09/15 11:34:55;;;;;;;;;;;24.90;94.80;;;;;;5099363;28;20467;-71
2022/09/15 11:37:23;;;;;;;;;;;24.90;94.60;;;;;;5117600;28;19903;-68
2022/09/15 11:39:56;;;;;;;;;;;25.00;94.80;;;;;;5117710;28;19908;-68
2022/09/15 11:42:51;;;;;;;;;;;25.00;94.90;;;;;;5117730;28;20278;-71
2022/09/15 11:45:20;;;;;;;;;;;25.10;95.00;;;;;;5014880;28;19956;-68
2022/09/15 11:47:48;;;;;;;;;;;25.20;95.20;;;;;;5015023;28;19901;-68
2022/09/15 11:50:16;;;;;;;;;;;25.30;95.50;;;;;;5015139;28;20360;-68
2022/09/15 11:52:42;;;;;;;;;;;25.50;95.80;;;;;;5014785;28;20458;-68
2022/09/15 11:55:08;;;;;;;;;;;25.50;95.90;;;;;;5014758;28;19905;-68
2022/09/15 11:57:37;;;;;;;;;;;25.60;95.60;;;;;;5014964;28;19920;-68
2022/09/15 12:00:13;;;;;;;;;;;25.70;95.50;;;;;;5014832;28;19913;-68
2022/09/15 12:02:39;;;;;;;;;;;25.70;95.50;;;;;;5014565;28;19920;-68
2022/09/15 12:05:19;;;;;;;;;;;25.80;95.60;;;;;;5014606;28;19921;-68
2022/09/15 12:07:48;;;;;;;;;;;25.90;95.70;;;;;;5014696;28;20384;-68
2022/09/15 12:10:18;;;;;;;;;;;25.90;95.70;;;;;;5014628;28;19932;-68
2022/09/15 12:12:45;;;;;;;;;;;26.00;95.70;;;;;;5014621;28;20003;-68
2022/09/15 12:15:18;;;;;;;;;;;26.10;95.80;;;;;;5021716;28;19916;-69
2022/09/15 12:17:47;;;;;;;;;;;26.20;95.80;;;;;;5034146;28;19905;-68
2022/09/15 12:20:16;;;;;;;;;;;26.20;95.70;;;;;;5034143;28;19939;-68
2022/09/15 12:23:01;;;;;;;;;;;26.20;95.50;;;;;;5092490;28;19942;-68
2022/09/15 12:25:34;;;;;;;;;;;26.30;95.60;;;;;;5116878;27;19904;-68
2022/09/15 12:28:29;;;;;;;;;;;26.40;95.80;;;;;;5098390;28;19911;-68
2022/09/15 12:31:24;;;;;;;;;;;26.50;95.80;;;;;;5094551;28;19908;-68
2022/09/15 12:34:03;;;;;;;;;;;26.50;95.80;;;;;;5115242;28;19923;-68
2022/09/15 12:36:29;;;;;;;;;;;26.60;95.70;;;;;;5115339;28;19907;-69
2022/09/15 12:38:55;;;;;;;;;;;26.60;95.30;;;;;;5115324;28;19979;-68
2022/09/15 12:41:21;;;;;;;;;;;26.60;95.20;;;;;;5114948;28;19904;-68
2022/09/15 12:43:59;;;;;;;;;;;26.60;95.10;;;;;;5115193;28;19904;-68
2022/09/15 12:46:25;;;;;;;;;;;26.60;94.80;;;;;;5115230;28;19910;-69
2022/09/15 12:48:52;;;;;;;;;;;26.60;94.70;;;;;;5115089;28;19904;-68
2022/09/15 12:51:23;;;;;;;;;;;26.60;94.70;;;;;;5115162;28;19908;-68
2022/09/15 12:53:49;;;;;;;;;;;26.70;95.10;;;;;;5115115;28;20278;-68
2022/09/15 12:56:23;;;;;;;;;;;26.70;95.10;;;;;;5114878;28;19914;-68
2022/09/15 12:58:50;;;;;;;;;;;26.70;94.50;;;;;;5115076;28;19912;-68
2022/09/15 13:01:21;;;;;;;;;;;26.60;93.60;;;;;;5115024;28;19903;-68
2022/09/15 13:03:48;;;;;;;;;;;26.40;93.10;;;;;;5114904;28;19904;-68
2022/09/15 13:06:23;;;;;;;;;;;26.20;92.60;;;;;;5114977;28;19903;-68
2022/09/15 13:08:53;;;;;;;;;;;26.10;92.50;;;;;;5114873;28;19908;-68
2022/09/15 13:11:37;;;;;;;;;;;26.00;92.90;;;;;;5114714;28;19923;-68
2022/09/15 13:14:02;;;;;;;;;;;25.90;93.20;;;;;;5114787;28;19911;-68
2022/09/15 13:16:31;;;;;;;;;;;25.90;93.20;;;;;;5096381;28;19923;-69
2022/09/15 13:19:06;;;;;;;;;;;25.70;93.00;;;;;;5114739;28;19911;-69
2022/09/15 13:21:33;;;;;;;;;;;25.50;92.60;;;;;;5095754;28;19908;-69
2022/09/15 13:24:01;;;;;;;;;;;25.30;92.50;;;;;;5114553;28;20002;-68
2022/09/15 13:26:29;;;;;;;;;;;25.00;92.50;;;;;;5096181;28;19904;-68
2022/09/15 13:28:56;;;;;;;;;;;24.70;92.30;;;;;;5114434;28;19915;-68
2022/09/15 13:31:36;;;;;;;;;;;24.40;92.00;;;;;;5095972;28;19953;-69
2022/09/15 13:34:08;;;;;;;;;;;24.10;91.70;;;;;;5072705;28;1198389;-68
2022/09/15 13:36:33;;;;;;;;;;;23.80;91.90;;;;;;5115236;28;19912;-69
2022/09/15 13:39:13;;;;;;;;;;;23.50;92.20;;;;;;5115196;28;20255;-68
2022/09/15 13:41:41;;;;;;;;;;;23.30;92.50;;;;;;5115066;28;20365;-68
2022/09/15 13:44:22;;;;;;;;;;;23.20;92.70;;;;;;5114964;28;19904;-69
2022/09/15 13:47:06;;;;;;;;;;;23.00;92.90;;;;;;5096759;28;19904;-69
2022/09/15 13:49:50;;;;;;;;;;;22.90;93.10;;;;;;5115046;28;19949;-69
2022/09/15 13:52:22;;;;;;;;;;;22.80;93.50;;;;;;5114194;28;19914;-69
2022/09/15 13:55:07;;;;;;;;;;;22.80;94.20;;;;;;5115006;28;19991;-69
2022/09/15 13:57:34;;;;;;;;;;;22.90;94.80;;;;;;5114557;27;19927;-69
2022/09/15 14:00:02;;;;;;;;;;;22.90;95.60;;;;;;5114819;28;19908;-69
2022/09/15 14:02:28;;;;;;;;;;;23.10;95.90;;;;;;5096790;27;20274;-69
2022/09/15 14:04:53;;;;;;;;;;;23.10;95.80;;;;;;5112739;27;19907;-69
2022/09/15 14:07:23;;;;;;;;;;;23.20;95.90;;;;;;5116714;27;19904;-69
2022/09/15 14:09:50;;;;;;;;;;;23.30;96.00;;;;;;5135141;27;19914;-69
2022/09/15 14:12:17;;;;;;;;;;;23.50;96.30;;;;;;5131881;27;19908;-69
2022/09/15 14:14:46;;;;;;;;;;;23.50;96.10;;;;;;5114475;28;19908;-69
2022/09/15 14:17:22;;;;;;;;;;;23.70;96.40;;;;;;5114379;28;19904;-69
2022/09/15 14:19:49;;;;;;;;;;;23.90;97.00;;;;;;5116197;27;19911;-69
2022/09/15 14:22:31;;;;;;;;;;;24.10;97.60;;;;;;5115381;27;19907;-69
2022/09/15 14:24:58;;;;;;;;;;;24.30;97.50;;;;;;5134974;27;19903;-69
2022/09/15 14:27:31;;;;;;;;;;;24.40;97.10;;;;;;5134010;27;20346;-69
2022/09/15 14:30:00;;;;;;;;;;;24.50;96.80;;;;;;5134657;27;19907;-69